• Join FlightAware (Why Join?)
  • Login
  • US Flag 
12:27AM EDT


 

Airport Tracker/Info


-or-


 

Live Flight TrackerFlight Track Log ✈ DAL6201 ✈ 02-Jun-2013 ✈ KPIT - KLGA

Flight Track Log - Related Links

Times and Time Zones

All times are in EDT time to prevent confusion due to time zone crossing. See the DAL6201 flight status page for this flight to view local times or setup timezone preferences in your user account.

Time Position Orientation Groundspeed Altitude Reporting Facility
EDT Latitude Longitude Course Direction KTS MPH feet Rate Location/Type
09:45PM 40.5603 -80.1431 70° East 315 362 6,800  Level Cleveland Center
09:46PM 40.5619 -80.0364 89° East 322 371 9,500 2,220 Climbing Cleveland Center
09:47PM 40.5761 -79.9217 81° East 317 365 11,300 1,920 Climbing Cleveland Center
09:48PM 40.5897 -79.7903 82° East 336 387 13,400 2,280 Climbing Cleveland Center
09:49PM 40.5579 -79.2613 80° East  Level Estimated
09:49PM 40.6033 -79.6533 82° East 358 412 15,900  Level Cleveland Center
09:50PM 40.5948 -79.1306 70° East  Level FlightAware Approximate
09:50PM 40.6189 -79.5164 81° East 368 423 18,000  Level Cleveland Center
09:51PM 40.6342 -79.3792 82° East 373 429 19,900 1,680 Climbing Cleveland Center
09:52PM 40.7122 -79.2875 42° Northeast 352 405 21,400 1,200 Climbing Cleveland Center
09:53PM 40.8269 -79.2769 North 349 402 22,300 1,080 Climbing Cleveland Center
09:54PM 40.9456 -79.2664 North 388 447 23,600 1,260 Climbing Cleveland Center
09:55PM 41.0683 -79.2475 North 413 475 24,900 660 Climbing Cleveland Center
09:56PM 41.1911 -79.2256 North 429 494 25,000  Climbing Cleveland Center
09:57PM 41.3200 -79.2064 North 450 518 25,000  Level Cleveland Center
09:58PM 41.4489 -79.1675 13° North 461 531 25,000  Level Cleveland Center
09:59PM 41.4883 -79.0058 72° East 387 445 25,000  Level Cleveland Center
10:00PM 41.4589 -78.8375 103° East 390 449 25,000  Level Cleveland Center
10:01PM 41.4250 -78.6694 105° East 412 474 25,000  Level Cleveland Center
10:02PM 41.3908 -78.5017 105° East 434 499 25,000  Level Cleveland Center
10:03PM 41.3606 -78.3339 103° East 455 524 25,000  Level Cleveland Center
10:04PM 41.3258 -78.1664 105° East 460 529 25,000  Level Cleveland Center
10:05PM 41.2931 -78.0019 105° East 460 529 25,000 -60 Level Cleveland Center
10:06PM 41.2622 -77.8400 104° East 460 529 24,900 -720 Descending Cleveland Center
10:07PM 41.2258 -77.6567 105° East 447 514 23,500 -1,200 Descending New York Center
10:08PM 41.1964 -77.5158 105° East 428 493 22,300 -1,080 Descending New York Center
10:09PM 41.1692 -77.3725 104° East 406 467 21,400 -900 Descending New York Center
10:10PM 41.1408 -77.2431 106° East 398 458 20,600 -900 Descending New York Center
10:11PM 41.1111 -77.0969 105° East 403 464 19,700 -840 Descending New York Center
10:12PM 41.0811 -76.9536 105° East 408 470 19,000 -360 Descending New York Center
10:13PM 41.0531 -76.8136 105° East 403 464 19,000  Level New York Center
10:14PM 41.0247 -76.6733 105° East 398 458 19,000  Level New York Center
10:15PM 40.9864 -76.5189 108° East 404 465 19,000  Level New York Center
10:16PM 40.9569 -76.3956 108° East 397 457 19,000  Level New York Center
10:17PM 40.9239 -76.2581 108° East 392 451 19,000 -240 Level New York Center
10:18PM 40.8869 -76.1069 108° East 392 451 18,600 -1,200 Descending New York Center
10:19PM 40.8625 -75.9981 106° East 392 451 16,600 -2,160 Descending New York Center
10:20PM 40.8217 -75.8358 108° East 392 451 14,300 -1,860 Descending New York Center
10:21PM 40.8078 -75.7225 99° East 368 423 13,000 -660 Descending New York Center
10:22PM 40.8275 -75.6003 78° East 344 396 13,000  Level New York Center
10:23PM 40.8411 -75.4697 82° East 332 382 13,000  Level New York Center
10:24PM 40.7944 -75.3842 126° Southeast 302 348 13,000 -600 Level New York Center
10:25PM 40.7358 -75.2789 126° Southeast 323 372 11,900 -1,020 Descending New York Center
10:26PM 40.6875 -75.1853 124° Southeast 323 372 11,000 -840 Descending New York Center
10:27PM 40.6303 -75.0997 131° Southeast 308 354 10,300 -540 Descending New York Center
10:28PM 40.5747 -75.0169 131° Southeast 308 354 10,000 -180 Descending New York Center
10:29PM 40.5447 -74.9222 113° Southeast 308 354 10,000  Level New York Center
10:30PM 40.5072 -74.8025 112° Southeast 308 354 10,000  Level New York Center
10:31PM 40.4772 -74.7053 112° Southeast 318 366 10,000 -240 Level New York Center
10:32PM 40.4500 -74.6000 109° East 310 357 9,600 -780 Descending New York TRACON
10:33PM 40.4167 -74.5000 114° Southeast 303 349 8,600 -840 Descending New York TRACON
10:34PM 40.3833 -74.4000 114° Southeast 309 356 8,000 -780 Descending New York TRACON
10:35PM 40.4000 -74.2667 81° East 300 345 7,000 -480 Descending New York TRACON
10:36PM 40.4667 -74.2000 37° Northeast 299 344 7,000 -540 Level New York TRACON
10:37PM 40.5333 -74.1333 37° Northeast 296 341 6,000 -1,320 Descending New York TRACON
10:38PM 40.5833 -74.0667 45° Northeast 290 334 4,400 -1,080 Descending New York TRACON
10:39PM 40.6500 -74.0167 30° Northeast 291 335 4,000 -240 Descending New York TRACON
10:40PM 40.7000 -73.9667 37° Northeast 252 290 4,000  Level New York TRACON
10:41PM 40.7833 -73.9500 North 253 291 4,000  Level New York TRACON
10:42PM 40.8500 -73.9167 21° North 237 273 4,000  Level New York TRACON
10:43PM 40.9000 -73.8833 27° Northeast 217 250 4,000  Level New York TRACON
10:44PM 40.9500 -73.8500 27° Northeast 225 259 4,000 -540 Level New York TRACON
10:45PM 40.9667 -73.8000 66° East 226 260 3,000 -480 Descending New York TRACON
10:46PM 40.9333 -73.7500 131° Southeast 192 221 3,000 -240 Level New York TRACON
10:47PM 40.9000 -73.7833 217° Southwest 162 186 2,500 -600 Descending New York TRACON
10:48PM 40.8667 -73.8167 217° Southwest 140 161 1,800 -720 Descending New York TRACON
10:49PM 40.8333 -73.8333 201° Southwest 121 139 1,100 -660 Descending New York TRACON
10:50PM 40.8000 -73.8500 201° Southwest 119 137 500 -600 Descending New York TRACON